createdAt,value
2023-06-05T05:41:36.125Z,4.55
2023-06-05T05:44:02.971Z,4.00
2023-06-05T05:51:23.880Z,4.20
2023-06-05T05:53:51.322Z,4.32
2023-06-05T05:56:18.173Z,4.68
2023-06-05T06:50:36.034Z,7.55
2023-06-05T06:55:34.746Z,6.78
2023-06-05T06:58:02.105Z,6.68
2023-06-05T07:00:29.376Z,6.72
2023-06-05T07:02:56.590Z,7.28
2023-06-05T07:05:23.845Z,6.63
2023-06-05T07:07:51.038Z,7.70
2023-06-05T07:10:18.056Z,7.82
2023-06-05T07:12:44.934Z,8.05
2023-06-05T07:15:12.069Z,8.90
2023-06-05T07:17:39.171Z,8.57
2023-06-05T07:20:06.838Z,8.55
2023-06-05T07:22:33.912Z,8.80
2023-06-05T07:25:01.410Z,9.32
2023-06-05T07:27:31.217Z,8.57
2023-06-05T07:29:59.082Z,8.70
2023-06-05T09:11:29.756Z,12.00
2023-06-05T09:14:01.075Z,11.18
2023-06-05T09:37:08.213Z,11.95
2023-06-05T09:39:36.240Z,12.68
2023-06-05T09:42:03.631Z,12.65
2023-06-05T12:19:19.185Z,13.65
2023-06-05T13:31:48.473Z,13.77
2023-06-05T13:36:42.987Z,14.50
2023-06-05T13:41:37.679Z,13.40
2023-06-05T13:44:04.579Z,14.73
2023-06-05T13:46:31.532Z,15.20
2023-06-05T13:49:01.225Z,15.05
2023-06-05T13:51:28.443Z,14.80
2023-06-05T13:53:58.239Z,14.80
2023-06-05T13:56:26.441Z,15.07
2023-06-05T13:58:53.712Z,14.45
2023-06-05T14:01:21.045Z,14.05
2023-06-05T14:03:49.275Z,14.38
2023-06-05T14:06:18.328Z,15.15
2023-06-05T14:08:47.149Z,15.40
2023-06-05T14:11:14.512Z,15.45
2023-06-05T14:13:42.438Z,14.50
2023-06-05T14:16:12.996Z,15.30
2023-06-05T14:18:40.432Z,14.70
2023-06-05T14:21:08.214Z,15.02
2023-06-05T14:23:35.118Z,14.48
2023-06-05T14:26:02.040Z,14.00
2023-06-05T14:28:29.661Z,14.40
2023-06-05T14:30:56.891Z,14.52
2023-06-05T14:33:23.940Z,15.30
2023-06-05T14:35:52.189Z,15.80
2023-06-05T14:38:19.102Z,14.88
2023-06-05T14:40:46.260Z,14.77
2023-06-05T14:43:13.132Z,14.85
2023-06-05T14:45:41.322Z,15.15
2023-06-05T14:48:10.560Z,15.32
2023-06-05T14:50:37.899Z,15.00
2023-06-05T14:53:05.906Z,15.73
2023-06-05T14:55:32.975Z,15.73
2023-06-05T14:57:59.860Z,14.80
2023-06-05T15:00:26.729Z,14.98
2023-06-05T15:02:53.676Z,16.27
2023-06-05T15:05:20.692Z,15.32
2023-06-05T15:37:27.644Z,14.60
2023-06-05T15:39:54.742Z,14.55
2023-06-05T15:42:35.813Z,14.20
2023-06-05T15:45:18.862Z,13.77
2023-06-05T15:47:46.941Z,14.00
2023-06-05T15:50:13.852Z,14.20
2023-06-05T16:34:28.844Z,14.77
2023-06-05T16:49:15.961Z,14.13
2023-06-05T16:51:42.950Z,14.43
2023-06-05T16:54:09.907Z,14.55
2023-06-05T16:56:36.775Z,13.10
2023-06-05T17:01:39.264Z,14.07
2023-06-05T17:38:34.074Z,11.55
2023-06-05T17:43:28.497Z,12.18
2023-06-05T17:45:55.708Z,12.40
2023-06-05T17:50:50.069Z,12.70
